Gouverneur, New York
Current Conditions -  °F | °C
As of 3:39 AM on Tuesday 21 Oct 2014 (Local Time) from KGTB Reporting Station
Overcast Overcast  
Wind Chill: 41°   Ceiling: 2500
Heat Index: 46°   Visibility: 10mi
Dew Point: 45°   Wind: 10mph
Humidity: 93%   Direction: 150°SSE
Pressure: 29.83"   Gusts: NA
Location:  44.34°N, 75.46°W
Report Text: KGTB 210739Z AUTO 15009KT 10SM BKN025 BKN030 OVC055 08/07 A2983 RMK AO2 DZB0726E0739
Loading
Personal Weather Stations






























Interactive Weather Map New forecast layout! Learn more

10-Day Weather Forecast

Advertisements
Track Severe Weather on mobile